sensor_id;sensor_type;location;lat;lon;timestamp;temperature;humidity
63966;DHT22;50151;52.030;5.350;2024-03-06T00:00:04;5.30;99.90
63966;DHT22;50151;52.030;5.350;2024-03-06T00:02:31;5.30;99.90
63966;DHT22;50151;52.030;5.350;2024-03-06T00:04:58;5.30;99.90
63966;DHT22;50151;52.030;5.350;2024-03-06T00:07:25;5.30;99.90
63966;DHT22;50151;52.030;5.350;2024-03-06T00:09:53;5.30;99.90
63966;DHT22;50151;52.030;5.350;2024-03-06T00:12:20;5.30;99.90
63966;DHT22;50151;52.030;5.350;2024-03-06T00:14:46;5.20;99.90
63966;DHT22;50151;52.030;5.350;2024-03-06T00:17:13;5.20;99.90
63966;DHT22;50151;52.030;5.350;2024-03-06T00:19:40;5.10;99.90
63966;DHT22;50151;52.030;5.350;2024-03-06T00:22:07;5.20;99.90
63966;DHT22;50151;52.030;5.350;2024-03-06T00:24:34;5.10;99.90
63966;DHT22;50151;52.030;5.350;2024-03-06T00:27:00;5.10;99.90
63966;DHT22;50151;52.030;5.350;2024-03-06T00:29:28;5.10;99.90
63966;DHT22;50151;52.030;5.350;2024-03-06T00:31:58;5.00;99.90
63966;DHT22;50151;52.030;5.350;2024-03-06T00:34:25;5.00;99.90
63966;DHT22;50151;52.030;5.350;2024-03-06T00:36:53;4.90;99.90
63966;DHT22;50151;52.030;5.350;2024-03-06T00:39:21;4.90;99.90
63966;DHT22;50151;52.030;5.350;2024-03-06T00:41:48;4.90;99.90
63966;DHT22;50151;52.030;5.350;2024-03-06T07:09:44;3.40;99.90
63966;DHT22;50151;52.030;5.350;2024-03-06T07:12:11;3.50;99.90
63966;DHT22;50151;52.030;5.350;2024-03-06T07:14:39;3.60;99.90
63966;DHT22;50151;52.030;5.350;2024-03-06T07:17:06;3.60;99.90
63966;DHT22;50151;52.030;5.350;2024-03-06T07:19:33;3.70;99.90
63966;DHT22;50151;52.030;5.350;2024-03-06T07:21:59;3.60;99.90
63966;DHT22;50151;52.030;5.350;2024-03-06T07:24:26;3.70;99.90
63966;DHT22;50151;52.030;5.350;2024-03-06T07:26:53;3.80;99.90
63966;DHT22;50151;52.030;5.350;2024-03-06T07:29:20;3.80;99.90
63966;DHT22;50151;52.030;5.350;2024-03-06T07:31:47;3.90;99.90
63966;DHT22;50151;52.030;5.350;2024-03-06T07:34:14;3.90;99.90
63966;DHT22;50151;52.030;5.350;2024-03-06T07:36:41;4.00;99.90
63966;DHT22;50151;52.030;5.350;2024-03-06T07:39:08;4.00;99.90
63966;DHT22;50151;52.030;5.350;2024-03-06T07:41:35;4.00;99.90
63966;DHT22;50151;52.030;5.350;2024-03-06T07:44:02;4.10;99.90
63966;DHT22;50151;52.030;5.350;2024-03-06T07:46:29;4.10;99.90
63966;DHT22;50151;52.030;5.350;2024-03-06T07:48:56;4.20;99.90
63966;DHT22;50151;52.030;5.350;2024-03-06T07:51:23;4.20;99.90
63966;DHT22;50151;52.030;5.350;2024-03-06T07:53:50;4.30;99.90
63966;DHT22;50151;52.030;5.350;2024-03-06T07:56:18;4.20;99.90
63966;DHT22;50151;52.030;5.350;2024-03-06T07:58:44;4.30;99.90
63966;DHT22;50151;52.030;5.350;2024-03-06T08:01:11;4.40;99.90
63966;DHT22;50151;52.030;5.350;2024-03-06T08:03:39;4.50;99.90
63966;DHT22;50151;52.030;5.350;2024-03-06T08:06:07;4.50;99.90
63966;DHT22;50151;52.030;5.350;2024-03-06T08:08:34;4.50;99.90
63966;DHT22;50151;52.030;5.350;2024-03-06T08:11:01;4.60;99.90
63966;DHT22;50151;52.030;5.350;2024-03-06T08:13:28;4.70;99.90
63966;DHT22;50151;52.030;5.350;2024-03-06T08:15:55;4.80;99.90
63966;DHT22;50151;52.030;5.350;2024-03-06T08:18:22;4.80;99.90
63966;DHT22;50151;52.030;5.350;2024-03-06T08:20:49;4.90;99.90
63966;DHT22;50151;52.030;5.350;2024-03-06T08:23:16;4.90;99.90
63966;DHT22;50151;52.030;5.350;2024-03-06T08:25:43;5.00;99.90
63966;DHT22;50151;52.030;5.350;2024-03-06T08:28:10;5.00;99.90
63966;DHT22;50151;52.030;5.350;2024-03-06T08:30:37;5.00;99.90
63966;DHT22;50151;52.030;5.350;2024-03-06T08:33:03;5.10;99.90
63966;DHT22;50151;52.030;5.350;2024-03-06T08:35:30;5.20;99.90
63966;DHT22;50151;52.030;5.350;2024-03-06T08:37:59;5.20;99.90
63966;DHT22;50151;52.030;5.350;2024-03-06T08:40:26;5.30;99.90
63966;DHT22;50151;52.030;5.350;2024-03-06T08:42:54;5.30;99.90
63966;DHT22;50151;52.030;5.350;2024-03-06T08:45:21;5.40;99.90
63966;DHT22;50151;52.030;5.350;2024-03-06T08:47:50;5.30;99.90
63966;DHT22;50151;52.030;5.350;2024-03-06T08:50:17;5.40;99.90
63966;DHT22;50151;52.030;5.350;2024-03-06T08:52:45;5.40;99.90
63966;DHT22;50151;52.030;5.350;2024-03-06T08:55:12;5.40;99.90
63966;DHT22;50151;52.030;5.350;2024-03-06T08:57:39;5.60;99.90
63966;DHT22;50151;52.030;5.350;2024-03-06T09:00:07;5.60;99.90
63966;DHT22;50151;52.030;5.350;2024-03-06T09:02:38;5.60;99.90
63966;DHT22;50151;52.030;5.350;2024-03-06T09:05:07;5.70;99.90
63966;DHT22;50151;52.030;5.350;2024-03-06T09:07:36;5.60;99.90
63966;DHT22;50151;52.030;5.350;2024-03-06T09:10:08;5.60;99.90
63966;DHT22;50151;52.030;5.350;2024-03-06T09:12:36;5.60;99.90
63966;DHT22;50151;52.030;5.350;2024-03-06T09:15:04;5.60;99.90
63966;DHT22;50151;52.030;5.350;2024-03-06T09:17:31;5.70;99.90
63966;DHT22;50151;52.030;5.350;2024-03-06T09:19:58;5.80;99.90
63966;DHT22;50151;52.030;5.350;2024-03-06T09:22:39;5.90;99.90
63966;DHT22;50151;52.030;5.350;2024-03-06T09:25:07;5.90;99.90
63966;DHT22;50151;52.030;5.350;2024-03-06T09:27:34;5.90;99.90
63966;DHT22;50151;52.030;5.350;2024-03-06T09:30:02;6.00;99.90
63966;DHT22;50151;52.030;5.350;2024-03-06T09:32:29;6.00;99.90
63966;DHT22;50151;52.030;5.350;2024-03-06T09:34:58;6.10;99.90
63966;DHT22;50151;52.030;5.350;2024-03-06T09:37:25;6.20;99.90
63966;DHT22;50151;52.030;5.350;2024-03-06T09:39:52;6.10;99.90
63966;DHT22;50151;52.030;5.350;2024-03-06T09:42:19;6.20;99.90
63966;DHT22;50151;52.030;5.350;2024-03-06T09:44:46;6.20;99.90
63966;DHT22;50151;52.030;5.350;2024-03-06T09:47:15;6.20;99.90
63966;DHT22;50151;52.030;5.350;2024-03-06T09:49:47;6.30;99.90
63966;DHT22;50151;52.030;5.350;2024-03-06T09:52:15;6.20;99.90
63966;DHT22;50151;52.030;5.350;2024-03-06T09:54:42;6.20;99.90
63966;DHT22;50151;52.030;5.350;2024-03-06T09:57:09;6.30;99.90
63966;DHT22;50151;52.030;5.350;2024-03-06T09:59:35;6.40;99.90
63966;DHT22;50151;52.030;5.350;2024-03-06T10:02:23;6.40;99.90
63966;DHT22;50151;52.030;5.350;2024-03-06T10:04:54;6.40;99.90
63966;DHT22;50151;52.030;5.350;2024-03-06T10:07:21;6.50;99.90
63966;DHT22;50151;52.030;5.350;2024-03-06T10:09:48;6.50;99.90
63966;DHT22;50151;52.030;5.350;2024-03-06T10:12:18;6.70;99.90
63966;DHT22;50151;52.030;5.350;2024-03-06T10:14:51;6.80;99.90
63966;DHT22;50151;52.030;5.350;2024-03-06T10:17:21;6.80;99.90
63966;DHT22;50151;52.030;5.350;2024-03-06T10:19:53;7.00;99.90
63966;DHT22;50151;52.030;5.350;2024-03-06T10:22:25;7.10;99.90
63966;DHT22;50151;52.030;5.350;2024-03-06T10:24:55;6.90;99.90
63966;DHT22;50151;52.030;5.350;2024-03-06T10:27:24;7.10;99.90
63966;DHT22;50151;52.030;5.350;2024-03-06T10:30:02;7.20;99.90
63966;DHT22;50151;52.030;5.350;2024-03-06T10:32:31;7.20;99.90
63966;DHT22;50151;52.030;5.350;2024-03-06T10:34:58;7.40;99.90
63966;DHT22;50151;52.030;5.350;2024-03-06T10:37:27;7.40;99.90
63966;DHT22;50151;52.030;5.350;2024-03-06T10:39:58;7.20;99.90
63966;DHT22;50151;52.030;5.350;2024-03-06T10:42:33;7.30;99.90
63966;DHT22;50151;52.030;5.350;2024-03-06T10:45:02;7.40;99.90
63966;DHT22;50151;52.030;5.350;2024-03-06T10:47:31;7.50;99.90
63966;DHT22;50151;52.030;5.350;2024-03-06T10:50:00;7.70;99.90
63966;DHT22;50151;52.030;5.350;2024-03-06T10:52:28;8.00;99.90
63966;DHT22;50151;52.030;5.350;2024-03-06T10:54:59;7.80;99.90
63966;DHT22;50151;52.030;5.350;2024-03-06T10:57:26;7.70;99.90
63966;DHT22;50151;52.030;5.350;2024-03-06T10:59:54;7.80;99.90
63966;DHT22;50151;52.030;5.350;2024-03-06T11:02:28;7.80;99.90
63966;DHT22;50151;52.030;5.350;2024-03-06T11:04:56;8.00;99.90
63966;DHT22;50151;52.030;5.350;2024-03-06T11:07:23;7.80;99.90
63966;DHT22;50151;52.030;5.350;2024-03-06T11:09:50;7.90;99.90
63966;DHT22;50151;52.030;5.350;2024-03-06T11:12:37;8.20;99.90
63966;DHT22;50151;52.030;5.350;2024-03-06T11:15:16;8.00;99.90
63966;DHT22;50151;52.030;5.350;2024-03-06T11:17:44;8.10;99.90
63966;DHT22;50151;52.030;5.350;2024-03-06T11:20:18;8.20;99.90
63966;DHT22;50151;52.030;5.350;2024-03-06T11:28:22;8.10;99.90
63966;DHT22;50151;52.030;5.350;2024-03-06T11:33:35;8.70;99.90
63966;DHT22;50151;52.030;5.350;2024-03-06T11:36:24;8.80;99.90
63966;DHT22;50151;52.030;5.350;2024-03-06T11:39:01;8.70;99.90
63966;DHT22;50151;52.030;5.350;2024-03-06T11:41:30;8.80;99.90
63966;DHT22;50151;52.030;5.350;2024-03-06T11:43:59;9.10;99.90
63966;DHT22;50151;52.030;5.350;2024-03-06T11:46:42;9.30;99.90
63966;DHT22;50151;52.030;5.350;2024-03-06T11:51:44;9.90;99.90
63966;DHT22;50151;52.030;5.350;2024-03-06T11:54:11;10.00;99.90
63966;DHT22;50151;52.030;5.350;2024-03-06T11:56:40;10.00;99.90
63966;DHT22;50151;52.030;5.350;2024-03-06T11:59:08;9.90;99.90
63966;DHT22;50151;52.030;5.350;2024-03-06T12:01:37;10.10;99.90
63966;DHT22;50151;52.030;5.350;2024-03-06T12:04:04;10.20;99.90
63966;DHT22;50151;52.030;5.350;2024-03-06T12:06:33;10.10;99.90
63966;DHT22;50151;52.030;5.350;2024-03-06T12:09:00;10.50;99.90
63966;DHT22;50151;52.030;5.350;2024-03-06T12:11:27;10.80;99.90
63966;DHT22;50151;52.030;5.350;2024-03-06T12:13:56;10.80;99.90
63966;DHT22;50151;52.030;5.350;2024-03-06T12:16:23;10.80;99.90
63966;DHT22;50151;52.030;5.350;2024-03-06T12:18:57;11.00;99.90
63966;DHT22;50151;52.030;5.350;2024-03-06T12:21:34;11.10;99.90
63966;DHT22;50151;52.030;5.350;2024-03-06T12:24:10;11.00;99.90
63966;DHT22;50151;52.030;5.350;2024-03-06T12:26:37;10.90;99.90
63966;DHT22;50151;52.030;5.350;2024-03-06T12:29:10;10.90;99.90
63966;DHT22;50151;52.030;5.350;2024-03-06T12:31:38;11.00;99.90
63966;DHT22;50151;52.030;5.350;2024-03-06T12:34:06;11.00;99.90
63966;DHT22;50151;52.030;5.350;2024-03-06T12:36:33;11.10;99.90
63966;DHT22;50151;52.030;5.350;2024-03-06T12:39:02;11.40;99.90
63966;DHT22;50151;52.030;5.350;2024-03-06T12:41:29;11.70;99.90
63966;DHT22;50151;52.030;5.350;2024-03-06T12:43:56;11.80;99.90
63966;DHT22;50151;52.030;5.350;2024-03-06T12:46:24;12.10;99.90
63966;DHT22;50151;52.030;5.350;2024-03-06T12:48:53;12.40;99.90
63966;DHT22;50151;52.030;5.350;2024-03-06T12:51:20;12.30;99.90
63966;DHT22;50151;52.030;5.350;2024-03-06T12:53:46;12.60;99.90
63966;DHT22;50151;52.030;5.350;2024-03-06T12:56:14;12.40;99.90
63966;DHT22;50151;52.030;5.350;2024-03-06T12:58:41;12.80;99.90
63966;DHT22;50151;52.030;5.350;2024-03-06T13:01:08;13.00;99.90
63966;DHT22;50151;52.030;5.350;2024-03-06T13:03:36;13.10;99.90
63966;DHT22;50151;52.030;5.350;2024-03-06T13:06:04;13.30;99.90
63966;DHT22;50151;52.030;5.350;2024-03-06T13:08:31;13.60;99.90
63966;DHT22;50151;52.030;5.350;2024-03-06T13:10:58;13.80;99.90
63966;DHT22;50151;52.030;5.350;2024-03-06T13:13:26;13.80;99.90
63966;DHT22;50151;52.030;5.350;2024-03-06T13:15:56;13.80;99.90
63966;DHT22;50151;52.030;5.350;2024-03-06T13:18:22;14.00;99.90
63966;DHT22;50151;52.030;5.350;2024-03-06T13:20:49;14.50;99.90
63966;DHT22;50151;52.030;5.350;2024-03-06T13:23:17;14.00;99.90
63966;DHT22;50151;52.030;5.350;2024-03-06T13:25:44;14.50;99.90
63966;DHT22;50151;52.030;5.350;2024-03-06T13:28:12;14.90;99.90
63966;DHT22;50151;52.030;5.350;2024-03-06T13:30:39;14.90;99.90
63966;DHT22;50151;52.030;5.350;2024-03-06T13:33:06;15.20;99.90
63966;DHT22;50151;52.030;5.350;2024-03-06T13:35:34;15.00;99.90
63966;DHT22;50151;52.030;5.350;2024-03-06T13:38:01;15.50;99.90
63966;DHT22;50151;52.030;5.350;2024-03-06T13:40:30;15.90;99.90
63966;DHT22;50151;52.030;5.350;2024-03-06T13:42:57;15.70;99.90
63966;DHT22;50151;52.030;5.350;2024-03-06T13:45:24;16.00;99.90
63966;DHT22;50151;52.030;5.350;2024-03-06T13:47:51;16.40;99.90
63966;DHT22;50151;52.030;5.350;2024-03-06T13:50:18;16.10;99.90
63966;DHT22;50151;52.030;5.350;2024-03-06T13:52:49;15.90;99.90
63966;DHT22;50151;52.030;5.350;2024-03-06T13:55:17;16.30;99.90
63966;DHT22;50151;52.030;5.350;2024-03-06T13:57:43;16.30;99.90
63966;DHT22;50151;52.030;5.350;2024-03-06T14:00:11;16.50;99.90
63966;DHT22;50151;52.030;5.350;2024-03-06T14:02:48;16.30;99.90
63966;DHT22;50151;52.030;5.350;2024-03-06T14:05:16;16.10;99.90
63966;DHT22;50151;52.030;5.350;2024-03-06T14:07:43;16.70;99.90
63966;DHT22;50151;52.030;5.350;2024-03-06T14:10:10;17.10;99.90
63966;DHT22;50151;52.030;5.350;2024-03-06T14:12:38;17.50;99.90
63966;DHT22;50151;52.030;5.350;2024-03-06T14:15:06;17.80;99.90
63966;DHT22;50151;52.030;5.350;2024-03-06T14:17:40;17.70;99.90
63966;DHT22;50151;52.030;5.350;2024-03-06T14:20:07;17.50;99.90
63966;DHT22;50151;52.030;5.350;2024-03-06T14:22:34;17.70;99.90
63966;DHT22;50151;52.030;5.350;2024-03-06T14:25:02;17.80;99.90
63966;DHT22;50151;52.030;5.350;2024-03-06T14:27:43;17.60;99.90
63966;DHT22;50151;52.030;5.350;2024-03-06T14:30:24;17.10;99.90
63966;DHT22;50151;52.030;5.350;2024-03-06T14:32:51;17.10;99.90
63966;DHT22;50151;52.030;5.350;2024-03-06T14:35:18;17.50;99.90
63966;DHT22;50151;52.030;5.350;2024-03-06T14:37:45;18.10;99.90
63966;DHT22;50151;52.030;5.350;2024-03-06T14:40:12;17.70;99.90
63966;DHT22;50151;52.030;5.350;2024-03-06T14:42:43;16.90;99.90
63966;DHT22;50151;52.030;5.350;2024-03-06T14:45:13;17.40;99.90
63966;DHT22;50151;52.030;5.350;2024-03-06T14:47:39;17.90;99.90
63966;DHT22;50151;52.030;5.350;2024-03-06T14:50:07;17.30;99.90
63966;DHT22;50151;52.030;5.350;2024-03-06T14:52:34;17.50;99.90
63966;DHT22;50151;52.030;5.350;2024-03-06T14:55:01;17.50;99.90
63966;DHT22;50151;52.030;5.350;2024-03-06T14:57:30;17.70;99.90
63966;DHT22;50151;52.030;5.350;2024-03-06T14:59:56;18.30;99.90
63966;DHT22;50151;52.030;5.350;2024-03-06T15:02:26;18.10;99.90
63966;DHT22;50151;52.030;5.350;2024-03-06T15:04:53;18.50;99.90
63966;DHT22;50151;52.030;5.350;2024-03-06T15:07:19;17.90;99.90
63966;DHT22;50151;52.030;5.350;2024-03-06T15:09:47;18.50;99.90
63966;DHT22;50151;52.030;5.350;2024-03-06T15:12:14;18.60;99.90
63966;DHT22;50151;52.030;5.350;2024-03-06T15:14:41;18.00;99.90
63966;DHT22;50151;52.030;5.350;2024-03-06T15:17:12;18.40;99.90
63966;DHT22;50151;52.030;5.350;2024-03-06T15:19:40;18.10;99.90
63966;DHT22;50151;52.030;5.350;2024-03-06T15:22:07;18.50;99.90
63966;DHT22;50151;52.030;5.350;2024-03-06T15:24:34;18.70;99.90
63966;DHT22;50151;52.030;5.350;2024-03-06T15:27:04;18.50;99.90
63966;DHT22;50151;52.030;5.350;2024-03-06T15:29:32;18.10;99.90
63966;DHT22;50151;52.030;5.350;2024-03-06T15:31:58;18.30;99.90
63966;DHT22;50151;52.030;5.350;2024-03-06T15:34:40;18.00;99.90
63966;DHT22;50151;52.030;5.350;2024-03-06T15:37:06;16.90;99.90
63966;DHT22;50151;52.030;5.350;2024-03-06T15:39:33;17.30;99.90
63966;DHT22;50151;52.030;5.350;2024-03-06T15:42:01;16.80;99.90
63966;DHT22;50151;52.030;5.350;2024-03-06T15:44:28;16.90;99.90
63966;DHT22;50151;52.030;5.350;2024-03-06T15:46:55;16.80;99.90
63966;DHT22;50151;52.030;5.350;2024-03-06T15:49:35;17.30;99.90
63966;DHT22;50151;52.030;5.350;2024-03-06T15:52:02;17.20;99.90
63966;DHT22;50151;52.030;5.350;2024-03-06T15:54:30;16.80;99.90
63966;DHT22;50151;52.030;5.350;2024-03-06T15:56:57;17.00;99.90
63966;DHT22;50151;52.030;5.350;2024-03-06T15:59:24;16.40;99.90
63966;DHT22;50151;52.030;5.350;2024-03-06T16:01:51;16.70;99.90
63966;DHT22;50151;52.030;5.350;2024-03-06T16:04:18;16.90;99.90
63966;DHT22;50151;52.030;5.350;2024-03-06T16:06:45;16.90;99.90
63966;DHT22;50151;52.030;5.350;2024-03-06T16:09:12;16.90;99.90
63966;DHT22;50151;52.030;5.350;2024-03-06T16:11:41;17.10;99.90
63966;DHT22;50151;52.030;5.350;2024-03-06T16:14:09;16.10;99.90
63966;DHT22;50151;52.030;5.350;2024-03-06T16:16:36;16.00;99.90
63966;DHT22;50151;52.030;5.350;2024-03-06T16:19:05;16.40;99.90
63966;DHT22;50151;52.030;5.350;2024-03-06T16:21:32;15.80;99.90
63966;DHT22;50151;52.030;5.350;2024-03-06T16:23:59;16.00;99.90
63966;DHT22;50151;52.030;5.350;2024-03-06T16:26:30;15.80;99.90
63966;DHT22;50151;52.030;5.350;2024-03-06T16:28:58;15.50;99.90
63966;DHT22;50151;52.030;5.350;2024-03-06T16:31:25;15.20;99.90
63966;DHT22;50151;52.030;5.350;2024-03-06T16:33:52;15.10;99.90
63966;DHT22;50151;52.030;5.350;2024-03-06T16:36:19;14.90;99.90
63966;DHT22;50151;52.030;5.350;2024-03-06T16:38:46;14.80;99.90
63966;DHT22;50151;52.030;5.350;2024-03-06T16:41:13;14.80;99.90
63966;DHT22;50151;52.030;5.350;2024-03-06T16:43:40;14.70;99.90
63966;DHT22;50151;52.030;5.350;2024-03-06T16:46:07;14.70;99.90
63966;DHT22;50151;52.030;5.350;2024-03-06T16:48:35;14.50;99.90
63966;DHT22;50151;52.030;5.350;2024-03-06T16:51:02;14.40;99.90
63966;DHT22;50151;52.030;5.350;2024-03-06T16:53:30;14.50;99.90
63966;DHT22;50151;52.030;5.350;2024-03-06T16:55:58;14.30;99.90
63966;DHT22;50151;52.030;5.350;2024-03-06T16:58:25;14.00;99.90
63966;DHT22;50151;52.030;5.350;2024-03-06T17:00:52;14.20;99.90
63966;DHT22;50151;52.030;5.350;2024-03-06T17:03:19;14.10;99.90
63966;DHT22;50151;52.030;5.350;2024-03-06T17:05:46;14.00;99.90
63966;DHT22;50151;52.030;5.350;2024-03-06T17:08:12;14.00;99.90
63966;DHT22;50151;52.030;5.350;2024-03-06T17:10:42;14.00;99.90
63966;DHT22;50151;52.030;5.350;2024-03-06T17:13:09;13.90;99.90
63966;DHT22;50151;52.030;5.350;2024-03-06T17:15:37;13.80;99.90
63966;DHT22;50151;52.030;5.350;2024-03-06T17:18:04;13.60;99.90
63966;DHT22;50151;52.030;5.350;2024-03-06T17:20:31;13.50;99.90
63966;DHT22;50151;52.030;5.350;2024-03-06T17:22:58;13.40;99.90
63966;DHT22;50151;52.030;5.350;2024-03-06T17:25:25;13.40;99.90
63966;DHT22;50151;52.030;5.350;2024-03-06T17:27:52;13.30;99.90
63966;DHT22;50151;52.030;5.350;2024-03-06T17:30:19;13.20;99.90
63966;DHT22;50151;52.030;5.350;2024-03-06T17:32:46;13.10;99.90
63966;DHT22;50151;52.030;5.350;2024-03-06T17:35:13;13.00;99.90
63966;DHT22;50151;52.030;5.350;2024-03-06T17:37:40;12.90;99.90
63966;DHT22;50151;52.030;5.350;2024-03-06T17:40:07;12.80;99.90
63966;DHT22;50151;52.030;5.350;2024-03-06T17:42:40;12.60;99.90
63966;DHT22;50151;52.030;5.350;2024-03-06T17:45:09;12.50;99.90
63966;DHT22;50151;52.030;5.350;2024-03-06T17:47:36;12.40;99.90
63966;DHT22;50151;52.030;5.350;2024-03-06T17:50:06;12.30;99.90
63966;DHT22;50151;52.030;5.350;2024-03-06T17:52:36;12.10;99.90
63966;DHT22;50151;52.030;5.350;2024-03-06T17:55:04;11.90;99.90
63966;DHT22;50151;52.030;5.350;2024-03-06T17:57:31;11.80;99.90
63966;DHT22;50151;52.030;5.350;2024-03-06T17:59:58;11.70;99.90
63966;DHT22;50151;52.030;5.350;2024-03-06T18:02:25;11.60;99.90
63966;DHT22;50151;52.030;5.350;2024-03-06T18:04:52;11.50;99.90
63966;DHT22;50151;52.030;5.350;2024-03-06T18:07:22;11.40;99.90
63966;DHT22;50151;52.030;5.350;2024-03-06T18:09:49;11.40;99.90
63966;DHT22;50151;52.030;5.350;2024-03-06T18:12:18;11.30;99.90
63966;DHT22;50151;52.030;5.350;2024-03-06T18:14:45;11.20;99.90
63966;DHT22;50151;52.030;5.350;2024-03-06T18:17:12;11.20;99.90
63966;DHT22;50151;52.030;5.350;2024-03-06T18:19:40;11.20;99.90
63966;DHT22;50151;52.030;5.350;2024-03-06T18:22:07;11.10;99.90
63966;DHT22;50151;52.030;5.350;2024-03-06T18:24:34;11.10;99.90
63966;DHT22;50151;52.030;5.350;2024-03-06T18:27:01;11.10;99.90
63966;DHT22;50151;52.030;5.350;2024-03-06T18:29:28;11.10;99.90
63966;DHT22;50151;52.030;5.350;2024-03-06T18:31:55;11.00;99.90
63966;DHT22;50151;52.030;5.350;2024-03-06T18:34:23;11.00;99.90
63966;DHT22;50151;52.030;5.350;2024-03-06T18:36:50;10.80;99.90
63966;DHT22;50151;52.030;5.350;2024-03-06T18:39:17;10.90;99.90
63966;DHT22;50151;52.030;5.350;2024-03-06T18:41:44;10.80;99.90
63966;DHT22;50151;52.030;5.350;2024-03-06T18:44:11;10.80;99.90
63966;DHT22;50151;52.030;5.350;2024-03-06T18:46:39;10.70;99.90
63966;DHT22;50151;52.030;5.350;2024-03-06T18:49:07;10.60;99.90
63966;DHT22;50151;52.030;5.350;2024-03-06T18:51:34;10.50;99.90
63966;DHT22;50151;52.030;5.350;2024-03-06T18:54:01;10.50;99.90
63966;DHT22;50151;52.030;5.350;2024-03-06T18:56:28;10.50;99.90
63966;DHT22;50151;52.030;5.350;2024-03-06T18:58:55;10.40;99.90
63966;DHT22;50151;52.030;5.350;2024-03-06T19:01:22;10.30;99.90
63966;DHT22;50151;52.030;5.350;2024-03-06T19:03:52;10.20;99.90
63966;DHT22;50151;52.030;5.350;2024-03-06T19:06:19;10.20;99.90
63966;DHT22;50151;52.030;5.350;2024-03-06T19:08:45;10.10;99.90
63966;DHT22;50151;52.030;5.350;2024-03-06T19:11:13;10.10;99.90
63966;DHT22;50151;52.030;5.350;2024-03-06T19:13:40;10.00;99.90
63966;DHT22;50151;52.030;5.350;2024-03-06T19:16:07;10.00;99.90
63966;DHT22;50151;52.030;5.350;2024-03-06T19:18:36;9.90;99.90
63966;DHT22;50151;52.030;5.350;2024-03-06T19:21:04;9.90;99.90
63966;DHT22;50151;52.030;5.350;2024-03-06T19:23:31;9.80;99.90
63966;DHT22;50151;52.030;5.350;2024-03-06T19:25:58;9.80;99.90
63966;DHT22;50151;52.030;5.350;2024-03-06T19:28:24;9.70;99.90
63966;DHT22;50151;52.030;5.350;2024-03-06T19:30:51;9.60;99.90
63966;DHT22;50151;52.030;5.350;2024-03-06T19:33:18;9.60;99.90
63966;DHT22;50151;52.030;5.350;2024-03-06T19:35:45;9.60;99.90
63966;DHT22;50151;52.030;5.350;2024-03-06T19:38:12;9.50;99.90
63966;DHT22;50151;52.030;5.350;2024-03-06T19:40:41;9.50;99.90
63966;DHT22;50151;52.030;5.350;2024-03-06T19:43:09;9.50;99.90
63966;DHT22;50151;52.030;5.350;2024-03-06T19:45:37;9.50;99.90
63966;DHT22;50151;52.030;5.350;2024-03-06T19:48:04;9.30;99.90
63966;DHT22;50151;52.030;5.350;2024-03-06T19:50:31;9.30;99.90
63966;DHT22;50151;52.030;5.350;2024-03-06T19:52:58;9.10;99.90
63966;DHT22;50151;52.030;5.350;2024-03-06T19:55:29;9.10;99.90
63966;DHT22;50151;52.030;5.350;2024-03-06T19:58:11;9.10;99.90
63966;DHT22;50151;52.030;5.350;2024-03-06T20:00:38;9.10;99.90
63966;DHT22;50151;52.030;5.350;2024-03-06T20:03:05;9.10;99.90
63966;DHT22;50151;52.030;5.350;2024-03-06T20:05:32;9.00;99.90
63966;DHT22;50151;52.030;5.350;2024-03-06T20:07:59;9.00;99.90
63966;DHT22;50151;52.030;5.350;2024-03-06T20:10:26;9.00;99.90
63966;DHT22;50151;52.030;5.350;2024-03-06T20:12:55;8.90;99.90
63966;DHT22;50151;52.030;5.350;2024-03-06T20:15:25;8.90;99.90
63966;DHT22;50151;52.030;5.350;2024-03-06T20:17:52;8.80;99.90
63966;DHT22;50151;52.030;5.350;2024-03-06T20:20:19;8.80;99.90
63966;DHT22;50151;52.030;5.350;2024-03-06T20:22:47;8.70;99.90
63966;DHT22;50151;52.030;5.350;2024-03-06T20:25:13;8.70;99.90
63966;DHT22;50151;52.030;5.350;2024-03-06T20:27:41;8.70;99.90
63966;DHT22;50151;52.030;5.350;2024-03-06T20:30:08;8.70;99.90
63966;DHT22;50151;52.030;5.350;2024-03-06T20:32:35;8.60;99.90
63966;DHT22;50151;52.030;5.350;2024-03-06T20:35:03;8.50;99.90
63966;DHT22;50151;52.030;5.350;2024-03-06T20:37:30;8.50;99.90
63966;DHT22;50151;52.030;5.350;2024-03-06T20:39:57;8.40;99.90
63966;DHT22;50151;52.030;5.350;2024-03-06T20:42:23;8.40;99.90
63966;DHT22;50151;52.030;5.350;2024-03-06T20:44:51;8.40;99.90
63966;DHT22;50151;52.030;5.350;2024-03-06T20:47:19;8.40;99.90
63966;DHT22;50151;52.030;5.350;2024-03-06T20:49:47;8.40;99.90
63966;DHT22;50151;52.030;5.350;2024-03-06T20:52:14;8.30;99.90
63966;DHT22;50151;52.030;5.350;2024-03-06T20:54:41;8.20;99.90
63966;DHT22;50151;52.030;5.350;2024-03-06T20:57:08;8.20;99.90
63966;DHT22;50151;52.030;5.350;2024-03-06T20:59:35;8.20;99.90
63966;DHT22;50151;52.030;5.350;2024-03-06T21:02:02;8.10;99.90
63966;DHT22;50151;52.030;5.350;2024-03-06T21:04:29;8.20;99.90
63966;DHT22;50151;52.030;5.350;2024-03-06T21:06:56;8.10;99.90
63966;DHT22;50151;52.030;5.350;2024-03-06T21:09:24;8.00;99.90
63966;DHT22;50151;52.030;5.350;2024-03-06T21:11:51;8.00;99.90
63966;DHT22;50151;52.030;5.350;2024-03-06T21:14:18;8.00;99.90
63966;DHT22;50151;52.030;5.350;2024-03-06T21:16:45;7.90;99.90
63966;DHT22;50151;52.030;5.350;2024-03-06T21:19:12;8.00;99.90
63966;DHT22;50151;52.030;5.350;2024-03-06T21:21:42;7.90;99.90
63966;DHT22;50151;52.030;5.350;2024-03-06T21:24:09;7.90;99.90
63966;DHT22;50151;52.030;5.350;2024-03-06T21:26:37;7.80;99.90
63966;DHT22;50151;52.030;5.350;2024-03-06T21:29:03;7.90;99.90
63966;DHT22;50151;52.030;5.350;2024-03-06T21:31:31;7.80;99.90
63966;DHT22;50151;52.030;5.350;2024-03-06T21:33:57;7.80;99.90
63966;DHT22;50151;52.030;5.350;2024-03-06T21:36:24;7.70;99.90
63966;DHT22;50151;52.030;5.350;2024-03-06T21:38:51;7.70;99.90
63966;DHT22;50151;52.030;5.350;2024-03-06T21:41:18;7.60;99.90
63966;DHT22;50151;52.030;5.350;2024-03-06T21:43:45;7.50;99.90
63966;DHT22;50151;52.030;5.350;2024-03-06T21:46:11;7.60;99.90
63966;DHT22;50151;52.030;5.350;2024-03-06T21:48:41;7.50;99.90
63966;DHT22;50151;52.030;5.350;2024-03-06T21:51:08;7.50;99.90
63966;DHT22;50151;52.030;5.350;2024-03-06T21:53:36;7.50;99.90
63966;DHT22;50151;52.030;5.350;2024-03-06T21:56:04;7.40;99.90
63966;DHT22;50151;52.030;5.350;2024-03-06T21:58:31;7.40;99.90
63966;DHT22;50151;52.030;5.350;2024-03-06T22:00:58;7.40;99.90
63966;DHT22;50151;52.030;5.350;2024-03-06T22:03:24;7.40;99.90
63966;DHT22;50151;52.030;5.350;2024-03-06T22:05:51;7.40;99.90
63966;DHT22;50151;52.030;5.350;2024-03-06T22:08:19;7.30;99.90
63966;DHT22;50151;52.030;5.350;2024-03-06T22:10:46;7.30;99.90
63966;DHT22;50151;52.030;5.350;2024-03-06T22:13:12;7.30;99.90
63966;DHT22;50151;52.030;5.350;2024-03-06T22:15:39;7.20;99.90
63966;DHT22;50151;52.030;5.350;2024-03-06T22:18:07;7.20;99.90
63966;DHT22;50151;52.030;5.350;2024-03-06T22:20:34;7.20;99.90